createdAt,value
2023-05-24T00:01:50.914Z,21.70
2023-05-24T00:04:18.949Z,21.70
2023-05-24T00:06:46.880Z,21.70
2023-05-24T00:09:13.982Z,21.70
2023-05-24T00:11:41.448Z,21.70
2023-05-24T00:14:08.608Z,21.70
2023-05-24T00:16:36.505Z,21.70
2023-05-24T00:19:03.836Z,21.70
2023-05-24T00:21:32.161Z,21.70
2023-05-24T00:23:59.145Z,21.70
2023-05-24T00:26:26.270Z,21.70
2023-05-24T00:28:53.292Z,21.70
2023-05-24T00:31:20.554Z,21.70
2023-05-24T00:33:47.613Z,21.70
2023-05-24T00:36:14.629Z,21.70
2023-05-24T00:38:41.651Z,21.70
2023-05-24T00:41:08.709Z,21.70
2023-05-24T00:43:36.920Z,21.70
2023-05-24T00:46:15.433Z,21.70
2023-05-24T00:48:43.792Z,21.70
2023-05-24T00:51:12.141Z,21.70
2023-05-24T00:53:41.383Z,21.70
2023-05-24T00:56:09.158Z,21.70
2023-05-24T00:58:36.494Z,21.70
2023-05-24T01:01:05.010Z,21.70
2023-05-24T01:03:33.891Z,21.70
2023-05-24T01:06:07.278Z,21.60
2023-05-24T01:08:43.342Z,21.60
2023-05-24T01:11:45.815Z,21.60
2023-05-24T01:14:27.669Z,21.60
2023-05-24T01:17:06.777Z,21.60
2023-05-24T01:19:36.824Z,21.60
2023-05-24T01:22:21.924Z,21.50
2023-05-24T01:25:04.500Z,21.50
2023-05-24T01:27:34.441Z,21.60
2023-05-24T01:30:04.322Z,21.60
2023-05-24T01:32:31.983Z,21.50
2023-05-24T01:34:59.339Z,21.60
2023-05-24T01:37:26.398Z,21.50
2023-05-24T01:39:54.084Z,21.60
2023-05-24T01:43:07.567Z,21.60
2023-05-24T01:45:42.191Z,21.60
2023-05-24T01:48:33.838Z,21.60
2023-05-24T01:51:05.475Z,21.60
2023-05-24T01:53:41.283Z,21.60
2023-05-24T01:56:11.288Z,21.60
2023-05-24T01:58:42.049Z,21.60
2023-05-24T02:01:10.097Z,21.60
2023-05-24T02:03:38.666Z,21.60
2023-05-24T02:06:06.749Z,21.60
2023-05-24T02:08:33.818Z,21.60
2023-05-24T02:11:00.905Z,21.60
2023-05-24T02:13:27.835Z,21.60
2023-05-24T02:15:55.715Z,21.60
2023-05-24T02:18:22.744Z,21.60
2023-05-24T02:20:49.929Z,21.60
2023-05-24T02:23:16.979Z,21.60
2023-05-24T02:25:44.172Z,21.60
2023-05-24T02:28:11.217Z,21.60
2023-05-24T02:30:38.726Z,21.60
2023-05-24T02:33:05.877Z,21.60
2023-05-24T02:35:34.454Z,21.50
2023-05-24T02:38:02.567Z,21.60
2023-05-24T02:40:29.842Z,21.60
2023-05-24T02:42:56.952Z,21.50
2023-05-24T02:45:24.162Z,21.50
2023-05-24T02:47:51.189Z,21.50
2023-05-24T02:50:18.308Z,21.50
2023-05-24T02:52:45.345Z,21.50
2023-05-24T02:55:12.343Z,21.50
2023-05-24T02:57:39.480Z,21.50
2023-05-24T03:00:11.042Z,21.50
2023-05-24T03:02:41.322Z,21.50
2023-05-24T03:05:08.773Z,21.50
2023-05-24T03:07:36.024Z,21.60
2023-05-24T03:10:03.241Z,21.60
2023-05-24T03:12:31.037Z,21.70
2023-05-24T03:14:58.045Z,21.70
2023-05-24T03:17:25.049Z,21.70
2023-05-24T03:19:53.051Z,21.70
2023-05-24T03:22:20.309Z,21.80
2023-05-24T03:24:47.359Z,21.80
2023-05-24T03:27:14.462Z,21.90
2023-05-24T03:29:41.405Z,21.90
2023-05-24T03:32:08.362Z,22.00
2023-05-24T03:34:35.313Z,22.00
2023-05-24T03:37:02.310Z,22.00
2023-05-24T03:39:29.721Z,22.10
2023-05-24T03:41:56.722Z,22.10
2023-05-24T03:44:23.875Z,22.10
2023-05-24T03:46:50.885Z,22.10
2023-05-24T03:49:17.962Z,22.10
2023-05-24T03:51:44.940Z,22.00
2023-05-24T03:54:11.971Z,22.00
2023-05-24T03:56:38.962Z,22.00
2023-05-24T03:59:06.146Z,22.00
2023-05-24T04:01:34.440Z,22.00
2023-05-24T04:04:05.171Z,21.90
2023-05-24T04:06:32.203Z,21.90
2023-05-24T04:09:00.515Z,22.00
2023-05-24T04:11:28.687Z,22.00
2023-05-24T04:13:57.693Z,22.00
2023-05-24T04:16:26.407Z,22.10
2023-05-24T04:18:57.447Z,22.10
2023-05-24T04:21:24.520Z,22.10
2023-05-24T04:23:51.533Z,22.20
2023-05-24T04:26:18.724Z,22.20
2023-05-24T04:28:46.892Z,22.20
2023-05-24T04:31:15.766Z,22.20
2023-05-24T04:33:42.905Z,22.10
2023-05-24T04:36:11.508Z,22.10
2023-05-24T04:38:39.784Z,22.10
2023-05-24T04:41:07.021Z,22.10
2023-05-24T04:43:35.239Z,22.00
2023-05-24T04:46:02.910Z,22.00
2023-05-24T04:48:30.428Z,22.10
2023-05-24T04:51:00.681Z,22.10
2023-05-24T04:53:27.741Z,22.10
2023-05-24T04:55:54.876Z,22.20
2023-05-24T04:58:21.983Z,22.30
2023-05-24T05:00:49.064Z,22.30
2023-05-24T05:03:16.448Z,22.40
2023-05-24T05:05:44.490Z,22.30
2023-05-24T05:08:11.495Z,22.30
2023-05-24T05:10:38.505Z,22.30
2023-05-24T05:13:05.470Z,22.30
2023-05-24T05:15:32.860Z,22.20
2023-05-24T05:18:00.443Z,22.20
2023-05-24T05:20:27.627Z,22.20
2023-05-24T05:22:54.827Z,22.10
2023-05-24T05:25:22.111Z,22.10
2023-05-24T05:27:49.037Z,22.00
2023-05-24T05:30:16.147Z,22.10
2023-05-24T05:32:43.266Z,22.10
2023-05-24T05:35:10.404Z,22.10
2023-05-24T05:37:37.404Z,22.10
2023-05-24T05:40:04.885Z,22.10
2023-05-24T05:42:32.069Z,22.10
2023-05-24T05:44:59.053Z,22.10
2023-05-24T05:47:26.161Z,22.10
2023-05-24T05:49:53.401Z,22.10
2023-05-24T05:52:20.796Z,22.10
2023-05-24T05:54:47.779Z,22.10
2023-05-24T05:57:16.299Z,22.00
2023-05-24T05:59:43.360Z,22.00
2023-05-24T06:02:10.608Z,22.00
2023-05-24T06:04:37.704Z,22.00
2023-05-24T06:07:04.884Z,22.00
2023-05-24T06:09:31.871Z,22.00
2023-05-24T06:11:58.978Z,22.00
2023-05-24T06:14:25.950Z,22.10
2023-05-24T06:16:54.587Z,22.10
2023-05-24T06:19:21.882Z,22.10
2023-05-24T06:21:50.613Z,22.20
2023-05-24T06:24:20.752Z,22.20
2023-05-24T06:26:52.162Z,22.20
2023-05-24T06:29:22.964Z,22.20
2023-05-24T06:31:50.526Z,22.20
2023-05-24T06:34:21.335Z,22.20
2023-05-24T06:36:51.108Z,22.10
2023-05-24T06:39:19.018Z,22.10
2023-05-24T06:41:47.125Z,22.00
2023-05-24T06:44:14.485Z,22.00
2023-05-24T06:46:41.507Z,22.00
2023-05-24T06:49:08.864Z,22.00
2023-05-24T06:51:36.603Z,22.00
2023-05-24T06:54:03.677Z,22.00
2023-05-24T06:56:30.812Z,22.00
2023-05-24T06:58:58.564Z,22.10
2023-05-24T07:01:26.166Z,22.10
2023-05-24T07:03:53.363Z,22.10
2023-05-24T07:06:20.260Z,22.20
2023-05-24T07:08:47.159Z,22.20
2023-05-24T07:11:14.392Z,22.20
2023-05-24T07:13:41.437Z,22.20
2023-05-24T07:16:08.539Z,22.20
2023-05-24T07:18:35.788Z,22.20
2023-05-24T07:21:02.816Z,22.20
2023-05-24T07:23:29.956Z,22.20
2023-05-24T07:25:57.222Z,22.20
2023-05-24T07:28:24.302Z,22.20
2023-05-24T07:30:51.856Z,22.10
2023-05-24T07:33:19.570Z,22.10
2023-05-24T07:35:51.348Z,22.10
2023-05-24T07:38:18.993Z,22.00
2023-05-24T07:40:46.243Z,22.00
2023-05-24T07:43:13.345Z,22.10
2023-05-24T07:45:40.469Z,22.10
2023-05-24T07:48:08.044Z,22.10
2023-05-24T07:50:35.094Z,22.20
2023-05-24T07:53:02.068Z,22.10
2023-05-24T07:55:29.443Z,22.10
2023-05-24T07:57:56.814Z,22.20
2023-05-24T08:00:23.805Z,22.10
2023-05-24T08:02:51.466Z,22.10
2023-05-24T08:05:18.996Z,22.10
2023-05-24T08:07:46.658Z,22.10
2023-05-24T08:10:14.162Z,22.00
2023-05-24T08:12:41.874Z,22.00
2023-05-24T08:15:09.329Z,21.90
2023-05-24T08:17:36.730Z,21.90
2023-05-24T08:20:10.024Z,21.90
2023-05-24T08:22:37.676Z,21.90
2023-05-24T08:25:06.222Z,22.00
2023-05-24T08:27:33.462Z,22.00
2023-05-24T08:30:00.428Z,22.00
2023-05-24T08:32:27.539Z,22.00
2023-05-24T08:35:03.561Z,22.10
2023-05-24T08:37:38.019Z,22.10
2023-05-24T08:40:05.586Z,22.10
2023-05-24T08:42:32.789Z,22.10
2023-05-24T08:45:09.570Z,22.10
2023-05-24T08:47:38.266Z,22.20
2023-05-24T08:50:07.339Z,22.20
2023-05-24T08:52:34.885Z,22.20
2023-05-24T08:55:05.734Z,22.20
2023-05-24T08:57:34.975Z,22.30
2023-05-24T09:00:02.294Z,22.40
2023-05-24T09:02:31.422Z,22.40
2023-05-24T09:04:59.888Z,22.50
2023-05-24T09:07:27.601Z,22.60
2023-05-24T09:10:12.445Z,22.70
2023-05-24T09:12:40.302Z,22.70
2023-05-24T09:15:08.689Z,22.80
2023-05-24T09:17:37.225Z,22.90
2023-05-24T09:20:08.981Z,23.00
2023-05-24T09:22:41.164Z,22.90
2023-05-24T09:25:10.086Z,23.00
2023-05-24T09:27:37.747Z,23.10
2023-05-24T09:30:10.414Z,23.10
2023-05-24T09:32:37.667Z,23.10
2023-05-24T09:35:09.361Z,23.20
2023-05-24T09:37:38.874Z,23.20
2023-05-24T09:40:08.008Z,23.30
2023-05-24T09:42:34.999Z,23.30
2023-05-24T09:45:12.229Z,23.30
2023-05-24T09:47:45.048Z,23.40
2023-05-24T09:50:14.007Z,23.40
2023-05-24T09:52:42.466Z,23.40
2023-05-24T09:55:16.877Z,23.40
2023-05-24T09:57:50.639Z,23.40
2023-05-24T10:00:23.239Z,23.50
2023-05-24T10:03:07.469Z,23.40
2023-05-24T10:05:35.938Z,23.40
2023-05-24T10:08:05.280Z,23.40
2023-05-24T10:10:33.720Z,23.40
2023-05-24T10:13:01.775Z,23.40
2023-05-24T10:15:30.213Z,23.30
2023-05-24T10:17:58.277Z,23.20
2023-05-24T10:20:25.533Z,23.20
2023-05-24T10:22:59.196Z,23.20
2023-05-24T10:25:28.558Z,23.10
2023-05-24T10:28:01.573Z,23.10
2023-05-24T10:30:35.490Z,23.00
2023-05-24T10:33:05.029Z,23.00
2023-05-24T10:35:33.940Z,22.90
2023-05-24T10:38:09.168Z,22.90
2023-05-24T10:40:42.091Z,22.80
2023-05-24T10:43:09.609Z,22.80
2023-05-24T10:45:40.941Z,22.80
2023-05-24T10:48:14.006Z,22.70
2023-05-24T10:50:42.603Z,22.70
2023-05-24T10:53:14.268Z,22.70
2023-05-24T10:56:04.170Z,22.70
2023-05-24T10:58:34.205Z,22.70
2023-05-24T11:01:01.801Z,22.60
2023-05-24T11:03:35.666Z,22.60
2023-05-24T11:06:03.465Z,22.50
2023-05-24T11:08:35.683Z,22.50
2023-05-24T11:11:22.352Z,22.50
2023-05-24T11:13:57.089Z,22.50
2023-05-24T11:16:39.293Z,22.60
2023-05-24T11:19:49.521Z,22.60
2023-05-24T11:22:16.857Z,22.70
2023-05-24T11:24:45.132Z,22.80
2023-05-24T11:27:14.163Z,22.80
2023-05-24T11:29:45.694Z,22.90
2023-05-24T11:32:18.213Z,23.00
2023-05-24T11:34:47.471Z,23.10
2023-05-24T11:37:17.567Z,23.20
2023-05-24T11:39:50.976Z,23.20
2023-05-24T11:42:17.978Z,23.20
2023-05-24T11:44:48.437Z,23.30
2023-05-24T11:47:15.492Z,23.30
2023-05-24T11:49:42.582Z,23.30
2023-05-24T11:52:09.804Z,23.30
2023-05-24T11:54:38.717Z,23.30
2023-05-24T11:57:06.212Z,23.30
2023-05-24T11:59:35.865Z,23.30
2023-05-24T12:02:06.626Z,23.20
2023-05-24T12:04:34.946Z,23.20
2023-05-24T12:07:03.100Z,23.20
2023-05-24T12:09:30.218Z,23.20
2023-05-24T12:11:58.542Z,23.10
2023-05-24T12:14:30.945Z,23.10
2023-05-24T12:16:58.375Z,23.10
2023-05-24T12:19:33.641Z,23.10
2023-05-24T12:22:09.092Z,23.00
2023-05-24T12:24:37.920Z,23.00
2023-05-24T12:27:08.792Z,22.90
2023-05-24T12:29:40.794Z,22.90
2023-05-24T12:32:14.739Z,22.90
2023-05-24T12:34:43.174Z,22.80
2023-05-24T12:37:12.357Z,22.80
2023-05-24T12:39:42.598Z,22.70
2023-05-24T12:42:12.121Z,22.70
2023-05-24T12:44:39.559Z,22.70
2023-05-24T12:47:08.523Z,22.70
2023-05-24T12:49:36.340Z,22.70
2023-05-24T12:52:04.036Z,22.70
2023-05-24T12:54:31.332Z,22.80
2023-05-24T12:57:02.821Z,22.80
2023-05-24T12:59:30.569Z,22.90
2023-05-24T13:01:58.954Z,22.90
2023-05-24T13:04:27.348Z,22.90
2023-05-24T13:06:54.949Z,23.00
2023-05-24T13:09:23.551Z,23.00
2023-05-24T13:11:51.457Z,23.00
2023-05-24T13:14:19.927Z,22.90
2023-05-24T13:16:48.038Z,22.90
2023-05-24T13:19:15.577Z,22.90
2023-05-24T13:21:42.769Z,22.90
2023-05-24T13:24:10.036Z,22.90
2023-05-24T13:26:38.108Z,22.80
2023-05-24T13:29:32.313Z,22.80
2023-05-24T13:31:56.442Z,22.80
2023-05-24T13:34:25.873Z,22.70
2023-05-24T13:36:54.133Z,22.70
2023-05-24T13:39:22.305Z,22.70
2023-05-24T13:41:49.606Z,22.70
2023-05-24T13:44:16.962Z,22.70
2023-05-24T13:46:44.318Z,22.70
2023-05-24T13:49:12.880Z,22.70
2023-05-24T13:51:40.398Z,22.70
2023-05-24T13:54:08.034Z,22.60
2023-05-24T13:56:35.784Z,22.60
2023-05-24T13:59:04.417Z,22.70
2023-05-24T14:01:32.257Z,22.70
2023-05-24T14:04:01.434Z,22.70
2023-05-24T14:06:28.836Z,22.70
2023-05-24T14:08:55.834Z,22.70
2023-05-24T14:11:24.776Z,22.70
2023-05-24T14:16:22.202Z,22.70
2023-05-24T14:18:51.654Z,22.70
2023-05-24T14:21:19.679Z,22.70
2023-05-24T14:23:46.599Z,22.70
2023-05-24T14:26:13.637Z,22.70
2023-05-24T14:28:41.150Z,22.70
2023-05-24T14:31:08.314Z,22.60
2023-05-24T14:33:35.369Z,22.60
2023-05-24T14:36:02.208Z,22.60
2023-05-24T14:38:29.479Z,22.60
2023-05-24T14:40:58.189Z,22.50
2023-05-24T14:43:25.919Z,22.60
2023-05-24T14:45:52.884Z,22.50
2023-05-24T14:48:19.843Z,22.50
2023-05-24T14:50:46.789Z,22.50
2023-05-24T14:53:13.827Z,22.50
2023-05-24T14:55:43.095Z,22.50
2023-05-24T14:58:14.546Z,22.40
2023-05-24T15:00:42.623Z,22.40
2023-05-24T15:03:12.747Z,22.40
2023-05-24T15:05:41.412Z,22.40
2023-05-24T15:08:09.324Z,22.40
2023-05-24T15:10:36.525Z,22.50
2023-05-24T15:13:03.960Z,22.40
2023-05-24T15:15:31.530Z,22.40
2023-05-24T15:18:00.102Z,22.40
2023-05-24T15:20:27.525Z,22.40
2023-05-24T15:22:54.598Z,22.40
2023-05-24T15:25:22.329Z,22.40
2023-05-24T15:27:50.014Z,22.40
2023-05-24T15:30:24.046Z,22.40
2023-05-24T15:32:51.052Z,22.40
2023-05-24T15:35:17.965Z,22.40
2023-05-24T15:37:44.876Z,22.40
2023-05-24T15:40:13.337Z,22.40
2023-05-24T15:42:40.269Z,22.40
2023-05-24T15:45:07.767Z,22.40
2023-05-24T15:47:40.005Z,22.40
2023-05-24T15:50:08.596Z,22.40
2023-05-24T15:52:36.208Z,22.40
2023-05-24T15:55:04.114Z,22.40
2023-05-24T15:57:31.982Z,22.40
2023-05-24T15:59:58.912Z,22.40
2023-05-24T16:02:25.993Z,22.50
2023-05-24T16:04:53.252Z,22.50
2023-05-24T16:07:20.158Z,22.50
2023-05-24T16:09:47.060Z,22.50
2023-05-24T16:12:13.996Z,22.50
2023-05-24T16:14:40.910Z,22.50
2023-05-24T16:17:08.162Z,22.50
2023-05-24T16:19:35.082Z,22.40
2023-05-24T16:22:02.165Z,22.40
2023-05-24T16:24:29.442Z,22.40
2023-05-24T16:26:57.652Z,22.40
2023-05-24T16:29:24.803Z,22.40
2023-05-24T16:31:52.011Z,22.40
2023-05-24T16:34:19.100Z,22.40
2023-05-24T16:36:46.996Z,22.40
2023-05-24T16:39:13.987Z,22.40
2023-05-24T16:41:40.991Z,22.40
2023-05-24T16:44:07.969Z,22.30
2023-05-24T16:46:35.090Z,22.40
2023-05-24T16:49:03.475Z,22.30
2023-05-24T16:51:30.407Z,22.30
2023-05-24T16:53:57.450Z,22.30
2023-05-24T16:56:24.383Z,22.30
2023-05-24T16:58:51.335Z,22.20
2023-05-24T17:01:18.451Z,22.20
2023-05-24T17:03:45.568Z,22.20
2023-05-24T17:06:12.511Z,22.20
2023-05-24T17:08:39.564Z,22.20
2023-05-24T17:11:07.158Z,22.20
2023-05-24T17:13:34.295Z,22.10
2023-05-24T17:16:03.384Z,22.10
2023-05-24T17:18:30.458Z,22.10
2023-05-24T17:20:59.175Z,22.10
2023-05-24T17:23:27.391Z,22.10
2023-05-24T17:25:55.646Z,22.10
2023-05-24T17:28:29.276Z,22.00
2023-05-24T17:31:00.746Z,22.00
2023-05-24T17:33:29.302Z,22.00
2023-05-24T17:35:57.046Z,22.00
2023-05-24T17:38:25.270Z,22.00
2023-05-24T17:40:59.612Z,22.00
2023-05-24T17:43:29.100Z,22.00
2023-05-24T17:46:03.219Z,22.00
2023-05-24T17:48:31.806Z,22.00
2023-05-24T17:51:03.750Z,22.00
2023-05-24T17:53:32.444Z,22.00
2023-05-24T17:55:59.922Z,22.00
2023-05-24T17:58:27.112Z,22.00
2023-05-24T18:00:54.084Z,22.00
2023-05-24T18:03:21.073Z,22.00
2023-05-24T18:05:47.968Z,22.00
2023-05-24T18:08:14.961Z,22.00
2023-05-24T18:10:41.935Z,22.00
2023-05-24T18:13:09.461Z,22.00
2023-05-24T18:15:36.779Z,22.00
2023-05-24T18:18:04.092Z,22.00
2023-05-24T18:20:31.241Z,22.00
2023-05-24T18:22:58.356Z,22.00
2023-05-24T18:25:25.720Z,22.00
2023-05-24T18:27:52.643Z,22.00
2023-05-24T18:30:19.793Z,22.00
2023-05-24T18:33:03.568Z,22.00
2023-05-24T18:35:32.697Z,21.90
2023-05-24T18:37:59.621Z,21.90
2023-05-24T18:40:26.558Z,21.90
2023-05-24T18:42:53.509Z,21.80
2023-05-24T18:45:20.559Z,21.80
2023-05-24T18:47:47.687Z,21.70
2023-05-24T18:50:14.729Z,21.70
2023-05-24T18:52:41.658Z,21.70
2023-05-24T18:55:10.859Z,21.70
2023-05-24T18:57:38.513Z,21.70
2023-05-24T19:00:07.148Z,21.70
2023-05-24T19:02:39.219Z,21.70
2023-05-24T19:05:09.572Z,21.70
2023-05-24T19:07:36.845Z,21.70
2023-05-24T19:10:04.728Z,21.70
2023-05-24T19:12:31.787Z,21.70
2023-05-24T19:14:59.102Z,21.70
2023-05-24T19:17:26.122Z,21.60
2023-05-24T19:19:53.167Z,21.60
2023-05-24T19:22:20.238Z,21.60
2023-05-24T19:24:47.351Z,21.60
2023-05-24T19:27:14.599Z,21.60
2023-05-24T19:29:41.496Z,21.60
2023-05-24T19:32:08.862Z,21.60
2023-05-24T19:34:37.395Z,21.60
2023-05-24T19:37:04.646Z,21.60
2023-05-24T19:39:31.616Z,21.60
2023-05-24T19:41:58.556Z,21.60
2023-05-24T19:44:25.537Z,21.60
2023-05-24T19:46:52.412Z,21.60
2023-05-24T19:49:19.386Z,21.60
2023-05-24T19:51:46.260Z,21.60
2023-05-24T19:54:13.795Z,21.60
2023-05-24T19:56:40.814Z,21.60
2023-05-24T19:59:07.766Z,21.50
2023-05-24T20:01:34.730Z,21.60
2023-05-24T20:04:01.853Z,21.60
2023-05-24T20:06:29.602Z,21.60
2023-05-24T20:08:58.795Z,21.50
2023-05-24T20:11:26.596Z,21.60
2023-05-24T20:13:53.929Z,21.60
2023-05-24T20:16:22.253Z,21.60
2023-05-24T20:18:49.267Z,21.60
2023-05-24T20:21:18.324Z,21.60
2023-05-24T20:23:45.337Z,21.60
2023-05-24T20:26:12.224Z,21.60
2023-05-24T20:28:39.095Z,21.60
2023-05-24T20:31:06.490Z,21.70
2023-05-24T20:33:37.841Z,21.70
2023-05-24T20:36:05.519Z,21.60
2023-05-24T20:38:32.513Z,21.70
2023-05-24T20:40:59.999Z,21.60
2023-05-24T20:43:26.932Z,21.60
2023-05-24T20:45:54.531Z,21.50
2023-05-24T20:48:21.507Z,21.50
2023-05-24T20:50:48.495Z,21.50
2023-05-24T20:53:15.385Z,21.40
2023-05-24T20:55:42.407Z,21.40
2023-05-24T20:58:09.432Z,21.40
2023-05-24T21:00:38.858Z,21.30
2023-05-24T21:03:07.010Z,21.30
2023-05-24T21:05:36.396Z,21.40
2023-05-24T21:08:03.810Z,21.40
2023-05-24T21:10:32.209Z,21.40
2023-05-24T21:12:59.072Z,21.40
2023-05-24T21:15:26.024Z,21.40
2023-05-24T21:17:52.941Z,21.40
2023-05-24T21:20:19.900Z,21.40
2023-05-24T21:22:47.273Z,21.40
2023-05-24T21:25:14.212Z,21.40
2023-05-24T21:27:41.093Z,21.40
2023-05-24T21:30:08.712Z,21.40
2023-05-24T21:32:35.745Z,21.50
2023-05-24T21:35:02.696Z,21.40
2023-05-24T21:37:30.508Z,21.40
2023-05-24T21:39:57.452Z,21.50
2023-05-24T21:42:24.342Z,21.50
2023-05-24T21:44:51.236Z,21.50
2023-05-24T21:47:18.096Z,21.50
2023-05-24T21:49:45.422Z,21.50
2023-05-24T21:52:12.339Z,21.50
2023-05-24T21:54:39.202Z,21.50
2023-05-24T21:57:07.254Z,21.60
2023-05-24T21:59:34.333Z,21.50
2023-05-24T22:02:01.381Z,21.60
2023-05-24T22:04:28.360Z,21.60
2023-05-24T22:06:55.409Z,21.60
2023-05-24T22:09:22.405Z,21.60
2023-05-24T22:11:49.406Z,21.60
2023-05-24T22:14:16.401Z,21.60
2023-05-24T22:16:43.620Z,21.60
2023-05-24T22:19:14.441Z,21.60
2023-05-24T22:21:42.812Z,21.60
2023-05-24T22:24:11.352Z,21.60
2023-05-24T22:26:41.481Z,21.60
2023-05-24T22:29:08.488Z,21.50
2023-05-24T22:31:36.186Z,21.50
2023-05-24T22:34:03.420Z,21.50
2023-05-24T22:36:33.295Z,21.40
2023-05-24T22:39:01.208Z,21.40
2023-05-24T22:41:28.455Z,21.40
2023-05-24T22:43:56.823Z,21.40
2023-05-24T22:46:24.366Z,21.40
2023-05-24T22:48:57.676Z,21.40
2023-05-24T22:51:24.932Z,21.40
2023-05-24T22:53:52.891Z,21.40
2023-05-24T22:56:20.668Z,21.30
2023-05-24T22:58:47.650Z,21.30
2023-05-24T23:01:17.576Z,21.30
2023-05-24T23:03:44.866Z,21.30
2023-05-24T23:06:12.166Z,21.30
2023-05-24T23:08:39.519Z,21.30
2023-05-24T23:11:10.393Z,21.30
2023-05-24T23:13:37.912Z,21.30
2023-05-24T23:16:05.479Z,21.30
2023-05-24T23:18:32.977Z,21.30
2023-05-24T23:21:03.029Z,21.30
2023-05-24T23:23:30.398Z,21.30
2023-05-24T23:25:57.299Z,21.30
2023-05-24T23:28:24.262Z,21.30
2023-05-24T23:30:51.254Z,21.30
2023-05-24T23:33:18.124Z,21.30
2023-05-24T23:35:45.271Z,21.30
2023-05-24T23:38:13.808Z,21.30
2023-05-24T23:40:40.868Z,21.30
2023-05-24T23:43:07.870Z,21.20
2023-05-24T23:45:34.762Z,21.20
2023-05-24T23:48:02.099Z,21.30
2023-05-24T23:50:30.310Z,21.30
2023-05-24T23:52:59.970Z,21.30
2023-05-24T23:55:26.856Z,21.20
2023-05-24T23:57:53.838Z,21.30
